Time;durP1;ratioP1;P1;durP2;ratioP2;P2;SDS_P1;SDS_P2;PMS_P1;PMS_P2;Temp;Humidity;BMP_temperature;BMP_pressure;BME280_temperature;BME280_humidity;BME280_pressure;Samples;Min_cycle;Max_cycle;Signal;HPM_P1;HPM_P2
2023/05/22 00:00:40;;;;;;;17.50;13.43;;;16.60;99.90;;;;;;5070296;28;20096;-70
2023/05/22 00:03:07;;;;;;;20.13;14.00;;;16.50;99.90;;;;;;5069081;28;20029;-69
2023/05/22 00:05:39;;;;;;;19.20;13.55;;;16.50;99.90;;;;;;5072773;28;20033;-70
2023/05/22 00:08:10;;;;;;;21.20;15.65;;;16.50;99.90;;;;;;5067885;28;20087;-68
2023/05/22 00:10:37;;;;;;;22.27;14.27;;;16.50;99.90;;;;;;5074592;28;20113;-69
2023/05/22 00:13:03;;;;;;;17.48;13.10;;;16.50;99.90;;;;;;5070086;28;20386;-68
2023/05/22 00:15:29;;;;;;;20.17;14.05;;;16.50;99.90;;;;;;5072601;28;20640;-69
2023/05/22 00:17:54;;;;;;;16.33;14.07;;;16.60;99.90;;;;;;5067220;28;20098;-69
2023/05/22 00:20:20;;;;;;;19.80;14.20;;;16.70;99.90;;;;;;5067774;28;20089;-69
2023/05/22 00:22:47;;;;;;;17.33;14.10;;;16.50;99.90;;;;;;5068886;28;20043;-68
2023/05/22 00:25:14;;;;;;;16.27;13.98;;;16.50;99.90;;;;;;5071153;28;20028;-68
2023/05/22 00:27:39;;;;;;;;;;;16.40;99.90;;;;;;5070251;28;20055;-67
2023/05/22 00:30:06;;;;;;;18.95;14.13;;;16.30;99.90;;;;;;5074274;28;20329;-67
2023/05/22 00:32:32;;;;;;;23.98;14.82;;;16.40;99.90;;;;;;5070203;28;20038;-69
2023/05/22 00:34:57;;;;;;;18.43;15.13;;;16.40;99.90;;;;;;5070961;28;20025;-67
2023/05/22 00:37:24;;;;;;;22.07;14.47;;;16.40;99.90;;;;;;5069476;28;20123;-68
2023/05/22 00:39:50;;;;;;;18.23;14.38;;;16.40;99.90;;;;;;5068408;28;20094;-68
2023/05/22 00:42:16;;;;;;;15.40;13.60;;;16.40;99.90;;;;;;5072098;28;20032;-69
2023/05/22 00:44:42;;;;;;;22.40;16.20;;;16.30;99.90;;;;;;5065786;28;20037;-66
2023/05/22 00:47:08;;;;;;;20.50;13.77;;;16.30;99.90;;;;;;5064749;28;20499;-66
2023/05/22 00:49:33;;;;;;;21.33;15.27;;;16.30;99.90;;;;;;5079326;28;20056;-68
2023/05/22 00:52:00;;;;;;;22.23;14.73;;;16.20;99.90;;;;;;5070080;28;20086;-67
2023/05/22 00:54:26;;;;;;;22.67;16.52;;;16.20;99.90;;;;;;5075942;28;20035;-68
2023/05/22 00:56:51;;;;;;;18.33;14.87;;;16.20;99.90;;;;;;5065165;28;20060;-67
2023/05/22 00:59:18;;;;;;;20.98;16.25;;;16.20;99.90;;;;;;5068094;28;20052;-68
2023/05/22 01:01:43;;;;;;;18.75;14.52;;;16.30;99.90;;;;;;5074406;28;20791;-68
2023/05/22 01:04:11;;;;;;;16.75;14.95;;;16.20;99.90;;;;;;5072508;28;20102;-68
2023/05/22 01:06:37;;;;;;;20.65;15.63;;;16.20;99.90;;;;;;5063679;28;20028;-68
2023/05/22 01:09:03;;;;;;;;;;;16.20;99.90;;;;;;5070506;28;20578;-68
2023/05/22 01:12:02;;;;;;;18.92;14.95;;;16.20;99.90;;;;;;5075508;28;19989;-69
2023/05/22 01:14:40;;;;;;;19.38;15.85;;;16.20;99.90;;;;;;5065747;28;20020;-68
2023/05/22 01:17:21;;;;;;;20.80;15.40;;;16.00;99.90;;;;;;5065862;28;20040;-68
2023/05/22 01:20:08;;;;;;;18.15;14.38;;;15.90;99.90;;;;;;5070768;28;20028;-69
2023/05/22 01:22:49;;;;;;;25.15;16.08;;;15.90;99.90;;;;;;5061317;28;20077;-68
2023/05/22 01:25:51;;;;;;;19.40;14.80;;;15.90;99.90;;;;;;5062258;28;20657;-67
2023/05/22 01:28:40;;;;;;;20.77;15.10;;;15.80;99.90;;;;;;5065646;28;20051;-68
2023/05/22 01:31:12;;;;;;;17.48;14.90;;;15.70;99.90;;;;;;5069738;28;20021;-67
2023/05/22 01:33:45;;;;;;;24.02;15.48;;;15.70;99.90;;;;;;5061870;28;20045;-68
2023/05/22 01:36:14;;;;;;;22.45;15.57;;;15.70;99.90;;;;;;5068012;28;20456;-69
2023/05/22 01:38:41;;;;;;;22.45;16.77;;;15.60;99.90;;;;;;5063650;28;20108;-67
2023/05/22 01:41:07;;;;;;;21.33;16.77;;;15.60;99.90;;;;;;5072271;28;20569;-68
2023/05/22 01:43:34;;;;;;;18.17;15.13;;;15.60;99.90;;;;;;5064612;28;20064;-69
2023/05/22 01:46:00;;;;;;;20.67;16.15;;;15.50;99.90;;;;;;5072271;28;20039;-68
2023/05/22 01:48:26;;;;;;;21.52;16.95;;;15.40;99.90;;;;;;5062531;28;20100;-69
2023/05/22 01:50:53;;;;;;;24.27;16.43;;;15.40;99.90;;;;;;5063840;28;20111;-69
2023/05/22 01:53:56;;;;;;;22.65;16.83;;;15.40;99.90;;;;;;5070760;28;20032;-69
2023/05/22 01:56:47;;;;;;;23.02;17.40;;;15.40;99.90;;;;;;5055166;28;20048;-67
2023/05/22 01:59:22;;;;;;;22.52;15.23;;;15.30;99.90;;;;;;5059829;28;20052;-69
2023/05/22 02:01:50;;;;;;;28.00;16.63;;;15.20;99.90;;;;;;5071192;28;20027;-68
2023/05/22 02:04:20;;;;;;;28.75;16.95;;;15.30;99.90;;;;;;5069264;28;20093;-67
2023/05/22 02:06:47;;;;;;;21.40;17.10;;;15.10;99.90;;;;;;5061258;28;20087;-68
2023/05/22 02:09:15;;;;;;;21.85;16.92;;;15.10;99.90;;;;;;5071101;28;20377;-68
2023/05/22 02:11:41;;;;;;;23.02;16.95;;;15.10;99.90;;;;;;5074411;28;20070;-68
2023/05/22 02:14:10;;;;;;;27.58;17.40;;;15.00;99.90;;;;;;5064220;28;20029;-69
2023/05/22 02:16:37;;;;;;;23.95;17.25;;;14.90;99.90;;;;;;5066915;28;20044;-68
2023/05/22 02:19:05;;;;;;;18.98;16.10;;;14.90;99.90;;;;;;5067190;28;20104;-70
2023/05/22 02:21:34;;;;;;;22.05;16.63;;;14.80;99.90;;;;;;5067392;28;20459;-67
2023/05/22 02:24:01;;;;;;;21.35;16.60;;;14.80;99.90;;;;;;5064992;28;20033;-68
2023/05/22 02:26:26;;;;;;;;;;;14.80;99.90;;;;;;5059930;28;20020;-66
2023/05/22 02:28:52;;;;;;;26.95;18.15;;;14.90;99.90;;;;;;5106309;28;20324;-68
2023/05/22 02:31:18;;;;;;;24.63;15.57;;;14.80;99.90;;;;;;5069639;28;20063;-67
2023/05/22 02:33:43;;;;;;;25.50;18.83;;;14.70;99.90;;;;;;5056657;28;20025;-67
2023/05/22 02:36:11;;;;;;;26.40;18.40;;;14.60;99.90;;;;;;5067015;28;20063;-68
2023/05/22 02:38:37;;;;;;;22.65;17.08;;;14.70;99.90;;;;;;5062707;28;20048;-67
2023/05/22 02:41:03;;;;;;;22.15;17.23;;;14.70;99.90;;;;;;5070422;28;20025;-68
2023/05/22 02:43:29;;;;;;;22.43;17.67;;;14.60;99.90;;;;;;5070711;28;20133;-68
2023/05/22 02:45:54;;;;;;;22.63;17.47;;;14.50;99.90;;;;;;5069792;28;20324;-67
2023/05/22 02:48:20;;;;;;;21.23;17.47;;;14.50;99.90;;;;;;5064298;28;20036;-68
2023/05/22 02:50:47;;;;;;;22.17;18.20;;;14.50;99.90;;;;;;5061645;28;20538;-68
2023/05/22 02:53:14;;;;;;;20.83;17.02;;;14.60;99.90;;;;;;5071738;28;20039;-69
2023/05/22 02:55:43;;;;;;;20.52;16.77;;;14.50;99.90;;;;;;5075772;28;20032;-67
2023/05/22 02:58:10;;;;;;;22.05;17.88;;;14.50;99.90;;;;;;5066739;28;20037;-66
2023/05/22 03:00:39;;;;;;;21.85;16.85;;;14.50;99.90;;;;;;5062489;28;20552;-68
2023/05/22 03:03:05;;;;;;;25.02;17.65;;;14.50;99.90;;;;;;5078107;28;20029;-68
2023/05/22 03:05:34;;;;;;;29.45;18.73;;;14.40;99.90;;;;;;5071694;28;20048;-68
2023/05/22 03:07:59;;;;;;;36.33;18.98;;;14.50;99.90;;;;;;5072122;28;20031;-67
2023/05/22 03:10:25;;;;;;;24.53;18.03;;;14.60;99.90;;;;;;5077358;28;20036;-67
2023/05/22 03:12:50;;;;;;;24.07;17.93;;;14.50;99.90;;;;;;5062259;28;20116;-67
2023/05/22 03:15:17;;;;;;;28.43;18.07;;;14.50;99.90;;;;;;5073911;28;20040;-68
2023/05/22 03:17:43;;;;;;;25.13;18.48;;;14.50;99.90;;;;;;5066315;28;20040;-68
2023/05/22 03:20:09;;;;;;;24.13;18.07;;;14.40;99.90;;;;;;5067510;28;20032;-68
2023/05/22 03:22:35;;;;;;;27.30;19.55;;;14.30;99.90;;;;;;5075661;28;20035;-68
2023/05/22 03:25:00;;;;;;;25.93;18.53;;;14.20;99.90;;;;;;5072668;28;20036;-68
2023/05/22 03:27:26;;;;;;;31.73;20.20;;;14.10;99.90;;;;;;5067459;28;20139;-66
2023/05/22 03:29:52;;;;;;;22.05;17.88;;;14.10;99.90;;;;;;5071923;28;20392;-68
2023/05/22 03:32:17;;;;;;;25.50;19.13;;;14.00;99.90;;;;;;5067014;28;20071;-68
2023/05/22 03:34:43;;;;;;;28.43;18.77;;;14.00;99.90;;;;;;5071475;28;20032;-68
2023/05/22 03:37:09;;;;;;;26.23;20.07;;;14.10;99.90;;;;;;5074932;28;20040;-68
2023/05/22 03:39:35;;;;;;;26.42;19.70;;;14.20;99.90;;;;;;5070340;28;20032;-68
2023/05/22 03:42:00;;;;;;;23.15;18.85;;;14.20;99.90;;;;;;5068819;28;20051;-69
2023/05/22 03:44:27;;;;;;;29.77;20.37;;;14.20;99.90;;;;;;5078363;28;20039;-69
2023/05/22 03:46:52;;;;;;;31.88;18.10;;;14.20;99.90;;;;;;5066101;28;20549;-69
2023/05/22 03:49:18;;;;;;;20.70;17.37;;;14.10;99.90;;;;;;5068577;28;20039;-68
2023/05/22 03:51:43;;;;;;;24.13;18.20;;;14.00;99.90;;;;;;5069718;28;20028;-69
2023/05/22 03:54:09;;;;;;;24.73;18.93;;;13.90;99.90;;;;;;5077662;28;20039;-67
2023/05/22 03:56:34;;;;;;;34.80;17.90;;;13.80;99.90;;;;;;5067933;28;20127;-69
2023/05/22 03:59:00;;;;;;;21.10;17.93;;;13.70;99.90;;;;;;5070134;28;20039;-69
2023/05/22 04:01:26;;;;;;;27.07;18.27;;;13.80;99.90;;;;;;5062657;28;20396;-69
2023/05/22 04:03:51;;;;;;;32.03;19.40;;;13.80;99.90;;;;;;5066607;28;20040;-68
2023/05/22 04:06:20;;;;;;;24.63;17.40;;;13.90;99.90;;;;;;5077081;28;20495;-67
2023/05/22 04:08:49;;;;;;;27.80;18.45;;;13.80;99.90;;;;;;5061471;28;20283;-68
2023/05/22 04:11:15;;;;;;;24.58;18.23;;;13.90;99.90;;;;;;5070559;28;20036;-69
2023/05/22 04:13:41;;;;;;;22.35;17.63;;;13.90;99.90;;;;;;5073383;28;20092;-68
2023/05/22 04:16:07;;;;;;;28.17;18.85;;;13.90;99.90;;;;;;5068201;28;20060;-67
2023/05/22 04:18:32;;;;;;;25.80;19.73;;;13.90;99.90;;;;;;5067183;28;20067;-67
2023/05/22 04:20:58;;;;;;;24.43;18.33;;;13.90;99.90;;;;;;5068741;28;20031;-68
2023/05/22 04:23:24;;;;;;;28.33;18.67;;;13.90;99.90;;;;;;5069734;28;20036;-67
2023/05/22 04:25:50;;;;;;;25.93;19.40;;;13.80;99.90;;;;;;5067155;28;20183;-68
2023/05/22 04:28:21;;;;;;;25.33;18.73;;;13.70;99.90;;;;;;5072430;28;20039;-68
2023/05/22 04:30:47;;;;;;;25.02;20.30;;;13.80;99.90;;;;;;5066764;28;20424;-69
2023/05/22 04:33:13;;;;;;;26.48;18.83;;;13.80;99.90;;;;;;5070084;28;20409;-69
2023/05/22 04:35:39;;;;;;;26.13;20.40;;;13.90;99.90;;;;;;5074015;28;20070;-66
2023/05/22 04:38:05;;;;;;;;;;;13.90;99.90;;;;;;5071737;28;20119;-67
2023/05/22 04:40:32;;;;;;;24.13;18.77;;;14.10;99.90;;;;;;5071599;28;20041;-68
2023/05/22 04:42:59;;;;;;;24.60;18.42;;;14.10;99.90;;;;;;5068411;28;20043;-66
2023/05/22 04:45:29;;;;;;;22.00;18.13;;;14.00;99.90;;;;;;5069387;28;20032;-68
2023/05/22 04:47:55;;;;;;;26.58;19.27;;;14.00;99.90;;;;;;5068653;28;20118;-68
2023/05/22 04:50:22;;;;;;;23.60;18.13;;;14.20;99.90;;;;;;5073205;28;20032;-69
2023/05/22 04:52:48;;;;;;;27.25;18.20;;;14.10;99.90;;;;;;5068789;28;20094;-67
2023/05/22 04:55:14;;;;;;;23.20;18.30;;;14.00;99.90;;;;;;5078756;28;20808;-69
2023/05/22 04:57:43;;;;;;;;;;;13.90;99.90;;;;;;5066228;28;20129;-68
2023/05/22 05:00:09;;;;;;;26.38;18.70;;;14.00;99.90;;;;;;5099299;27;20265;-68
2023/05/22 05:02:35;;;;;;;25.58;19.05;;;14.10;99.90;;;;;;5071077;28;20055;-67
2023/05/22 05:05:00;;;;;;;23.33;18.33;;;14.20;99.90;;;;;;5062661;28;20484;-67
2023/05/22 05:07:26;;;;;;;25.40;18.83;;;14.30;99.90;;;;;;5066298;28;20040;-66
2023/05/22 05:09:52;;;;;;;29.60;19.40;;;14.90;99.90;;;;;;5068303;28;20059;-67
2023/05/22 05:12:17;;;;;;;25.13;18.07;;;14.80;99.90;;;;;;5064853;28;20037;-67
2023/05/22 05:14:43;;;;;;;23.47;16.60;;;15.00;99.90;;;;;;5065928;28;20511;-67
2023/05/22 05:17:09;;;;;;;25.73;18.37;;;15.00;99.90;;;;;;5068112;28;20123;-68
2023/05/22 05:19:34;;;;;;;21.40;17.10;;;15.40;99.90;;;;;;5065081;28;20032;-69
2023/05/22 05:22:00;;;;;;;24.33;17.23;;;15.90;99.90;;;;;;5065018;28;20540;-66
2023/05/22 05:24:26;;;;;;;24.87;16.73;;;15.80;99.90;;;;;;5066889;28;20035;-68
2023/05/22 05:26:51;;;;;;;22.27;15.70;;;16.20;99.90;;;;;;5070475;28;20275;-69
2023/05/22 05:29:17;;;;;;;19.30;15.30;;;17.10;99.90;;;;;;5071908;28;20039;-69
2023/05/22 05:31:43;;;;;;;20.13;14.23;;;18.30;99.90;;;;;;5066880;28;20094;-68
2023/05/22 05:34:08;;;;;;;26.60;17.20;;;18.00;99.90;;;;;;5064782;28;20047;-68
2023/05/22 05:36:34;;;;;;;20.50;14.37;;;19.00;99.90;;;;;;5067516;28;20411;-68
2023/05/22 05:39:00;;;;;;;20.90;15.13;;;20.20;99.90;;;;;;5072647;28;20357;-69
2023/05/22 05:41:26;;;;;;;25.03;14.73;;;20.80;98.60;;;;;;5073086;28;20032;-69
2023/05/22 05:43:51;;;;;;;21.73;14.55;;;21.50;95.50;;;;;;5066013;28;20306;-66
2023/05/22 05:46:18;;;;;;;25.73;15.17;;;21.40;94.90;;;;;;5065351;28;20032;-66
2023/05/22 05:48:44;;;;;;;16.25;13.77;;;21.90;94.10;;;;;;5061513;28;20039;-69
2023/05/22 05:51:10;;;;;;;22.17;14.32;;;21.70;94.10;;;;;;5072786;28;20617;-67
2023/05/22 05:53:35;;;;;;;24.80;15.55;;;21.70;93.20;;;;;;5062544;28;20041;-68
2023/05/22 05:56:02;;;;;;;17.73;13.77;;;22.00;92.40;;;;;;5064217;28;20106;-69
2023/05/22 05:58:28;;;;;;;;;;;21.60;92.90;;;;;;5070095;28;20527;-69
2023/05/22 06:00:53;;;;;;;18.25;13.55;;;22.10;92.70;;;;;;5094471;27;19908;-68
2023/05/22 06:03:19;;;;;;;16.35;14.48;;;22.30;91.10;;;;;;5064006;28;20044;-69
2023/05/22 06:05:45;;;;;;;15.63;13.37;;;22.90;89.80;;;;;;5061448;28;20071;-69
2023/05/22 06:08:12;;;;;;;18.13;13.87;;;23.30;88.60;;;;;;5067900;28;20032;-69
2023/05/22 06:10:38;;;;;;;19.33;13.38;;;23.20;88.20;;;;;;5065302;28;20294;-67
2023/05/22 06:13:03;;;;;;;18.95;13.82;;;22.20;90.40;;;;;;5062003;28;20029;-67
2023/05/22 06:15:30;;;;;;;16.97;14.03;;;20.50;93.60;;;;;;5056726;28;20043;-68
2023/05/22 06:17:56;;;;;;;18.45;13.98;;;21.30;94.60;;;;;;5065850;28;20474;-68
2023/05/22 06:20:23;;;;;;;15.25;13.57;;;22.20;92.10;;;;;;5067406;28;20032;-66
2023/05/22 06:22:50;;;;;;;18.75;14.25;;;22.10;91.10;;;;;;5065263;28;20115;-66
2023/05/22 06:25:16;;;;;;;20.88;14.80;;;21.30;92.70;;;;;;5068240;28;20402;-68
2023/05/22 06:27:42;;;;;;;17.63;14.00;;;20.80;93.80;;;;;;5072254;28;20166;-66
2023/05/22 06:30:08;;;;;;;18.38;14.18;;;21.10;94.60;;;;;;5074939;28;20033;-67
2023/05/22 06:32:33;;;;;;;19.17;14.57;;;20.80;95.30;;;;;;5072616;28;20040;-68
2023/05/22 06:34:59;;;;;;;21.10;14.60;;;21.20;94.60;;;;;;5069593;28;20037;-68
2023/05/22 06:37:25;;;;;;;18.83;14.97;;;21.00;94.90;;;;;;5071680;28;20312;-65
2023/05/22 06:39:50;;;;;;;19.87;14.40;;;20.30;95.60;;;;;;5069429;28;20056;-65
2023/05/22 06:42:16;;;;;;;21.77;14.97;;;19.70;97.90;;;;;;5075258;28;20040;-65
2023/05/22 06:44:42;;;;;;;17.23;15.35;;;20.00;99.50;;;;;;5069973;28;20060;-69
2023/05/22 06:47:07;;;;;;;21.33;15.97;;;20.40;99.50;;;;;;5065933;28;20783;-68
2023/05/22 06:49:33;;;;;;;21.40;16.23;;;20.70;99.60;;;;;;5072048;28;20523;-68
2023/05/22 06:51:58;;;;;;;20.57;15.80;;;20.70;98.70;;;;;;5073877;28;20024;-68
2023/05/22 06:54:27;;;;;;;18.43;14.63;;;20.80;99.40;;;;;;5065972;28;20037;-66
2023/05/22 06:56:53;;;;;;;23.65;15.65;;;20.90;98.90;;;;;;5064458;28;20032;-66
2023/05/22 06:59:19;;;;;;;;;;;21.10;98.00;;;;;;5070702;28;20039;-66
2023/05/22 07:01:45;;;;;;;18.65;15.30;;;21.00;99.30;;;;;;5072257;28;19916;-67
2023/05/22 07:04:12;;;;;;;18.40;15.25;;;20.70;98.90;;;;;;5074455;28;20115;-66
2023/05/22 07:06:40;;;;;;;21.20;16.95;;;21.20;98.60;;;;;;5069613;28;20052;-66
2023/05/22 07:09:06;;;;;;;20.13;16.48;;;22.50;95.90;;;;;;5072847;28;20024;-68
2023/05/22 07:11:32;;;;;;;23.80;16.98;;;22.50;95.90;;;;;;5068351;28;20028;-71
2023/05/22 07:13:57;;;;;;;20.23;16.80;;;22.10;95.90;;;;;;5070627;28;20051;-70
2023/05/22 07:16:24;;;;;;;21.03;17.47;;;21.90;95.60;;;;;;5074571;28;20430;-70
2023/05/22 07:18:50;;;;;;;22.85;16.30;;;21.90;97.20;;;;;;5061449;28;20033;-69
2023/05/22 07:21:15;;;;;;;23.23;16.90;;;21.80;96.70;;;;;;5070786;28;20035;-69
2023/05/22 07:23:41;;;;;;;29.10;18.43;;;21.70;97.90;;;;;;5074140;28;20560;-70
2023/05/22 07:26:07;;;;;;;23.60;17.77;;;21.40;99.90;;;;;;5065935;28;20744;-72
2023/05/22 07:28:32;;;;;;;24.37;19.70;;;21.30;99.90;;;;;;5070543;28;20024;-73
2023/05/22 07:30:58;;;;;;;28.63;20.67;;;21.40;99.90;;;;;;5074246;28;20340;-69
2023/05/22 07:33:24;;;;;;;26.27;22.37;;;21.30;99.90;;;;;;5064197;28;20310;-72
2023/05/22 07:35:50;;;;;;;28.95;23.63;;;21.40;99.60;;;;;;5064842;28;20759;-68
2023/05/22 07:38:16;;;;;;;31.73;22.50;;;21.50;99.90;;;;;;5078116;28;20046;-69
2023/05/22 07:40:42;;;;;;;29.00;21.15;;;21.60;99.90;;;;;;5074139;28;20028;-68
2023/05/22 07:43:07;;;;;;;27.92;19.92;;;21.70;99.40;;;;;;5061970;28;20056;-68
2023/05/22 07:45:33;;;;;;;31.17;19.50;;;21.60;98.80;;;;;;5059708;28;20473;-65
2023/05/22 07:48:00;;;;;;;31.23;18.87;;;21.60;99.00;;;;;;5061686;28;20025;-66
2023/05/22 07:50:26;;;;;;;32.15;20.90;;;21.80;98.30;;;;;;5068923;28;20024;-67
2023/05/22 07:52:52;;;;;;;29.35;19.20;;;22.10;97.30;;;;;;5076320;28;20035;-66
2023/05/22 07:55:17;;;;;;;21.40;17.53;;;22.00;97.60;;;;;;5068794;28;20040;-66
2023/05/22 07:57:43;;;;;;;23.60;17.53;;;21.90;97.50;;;;;;5071803;28;20033;-67
2023/05/22 08:00:12;;;;;;;23.50;19.42;;;21.90;97.30;;;;;;5071501;28;20029;-69
2023/05/22 08:02:39;;;;;;;24.50;18.95;;;21.90;97.40;;;;;;5067568;28;20036;-66
2023/05/22 08:05:06;;;;;;;23.33;17.58;;;21.90;97.80;;;;;;5068222;28;20119;-68
2023/05/22 08:07:32;;;;;;;25.60;17.20;;;22.10;97.30;;;;;;5060369;28;20025;-66
2023/05/22 08:09:58;;;;;;;21.20;17.50;;;22.70;96.50;;;;;;5066778;28;20037;-66
2023/05/22 08:12:23;;;;;;;21.13;16.52;;;22.90;95.30;;;;;;5069194;28;20043;-66
2023/05/22 08:14:49;;;;;;;27.63;22.90;;;22.80;96.00;;;;;;5067827;28;20444;-67
2023/05/22 08:17:15;;;;;;;22.05;17.95;;;23.40;95.80;;;;;;5062621;28;20041;-69
2023/05/22 08:19:40;;;;;;;22.23;17.80;;;24.30;94.00;;;;;;5069924;28;20404;-67
2023/05/22 08:22:06;;;;;;;20.67;16.80;;;25.80;91.90;;;;;;5066549;28;20332;-66
2023/05/22 08:24:31;;;;;;;21.40;16.77;;;28.10;86.50;;;;;;5065398;28;20456;-67
2023/05/22 08:26:57;;;;;;;18.63;16.02;;;29.30;80.70;;;;;;5067308;28;20037;-69
2023/05/22 08:29:23;;;;;;;18.90;14.88;;;30.00;77.40;;;;;;5066143;28;20077;-69
2023/05/22 08:31:49;;;;;;;18.48;15.82;;;29.30;77.70;;;;;;5083847;27;20029;-68
2023/05/22 08:34:14;;;;;;;21.33;15.50;;;29.70;75.80;;;;;;5066150;28;20036;-68
2023/05/22 08:36:41;;;;;;;17.58;14.93;;;28.90;76.70;;;;;;5066566;28;20032;-68
2023/05/22 08:39:08;;;;;;;19.70;15.68;;;28.40;78.70;;;;;;5063880;28;20052;-69
2023/05/22 08:41:34;;;;;;;25.25;15.30;;;28.60;79.20;;;;;;5061429;28;20063;-68
2023/05/22 08:44:00;;;;;;;15.73;13.75;;;28.00;79.10;;;;;;5099708;27;20076;-68
2023/05/22 08:46:27;;;;;;;20.45;15.65;;;27.20;81.70;;;;;;5065128;28;20037;-69
2023/05/22 08:48:55;;;;;;;15.80;14.10;;;26.50;83.40;;;;;;5065377;28;20033;-68
2023/05/22 08:51:24;;;;;;;20.90;14.18;;;26.70;85.60;;;;;;5099651;27;20040;-68
2023/05/22 08:53:54;;;;;;;26.33;14.48;;;27.50;83.10;;;;;;5063586;28;20029;-67
2023/05/22 08:56:20;;;;;;;17.58;15.23;;;27.20;84.20;;;;;;5069076;28;20092;-66
2023/05/22 08:58:46;;;;;;;20.55;16.80;;;27.10;85.80;;;;;;5065000;28;20495;-68
2023/05/22 09:01:13;;;;;;;20.38;16.90;;;27.70;83.40;;;;;;5066659;28;20031;-65
2023/05/22 09:03:38;;;;;;;19.50;16.60;;;28.40;82.30;;;;;;5068779;28;20460;-67
2023/05/22 09:06:08;;;;;;;23.23;17.38;;;27.10;80.90;;;;;;5065270;28;20060;-68
2023/05/22 09:08:33;;;;;;;21.92;18.15;;;27.60;83.70;;;;;;5066759;28;20041;-67
2023/05/22 09:10:59;;;;;;;24.98;17.70;;;29.00;80.80;;;;;;5070265;28;20496;-66
2023/05/22 09:13:30;;;;;;;18.95;15.48;;;29.80;78.80;;;;;;5069018;28;20029;-66
2023/05/22 09:16:10;;;;;;;17.50;14.80;;;27.60;80.60;;;;;;5074390;28;20124;-68
2023/05/22 09:18:36;;;;;;;22.00;15.10;;;26.40;83.80;;;;;;5064797;28;20044;-68
2023/05/22 09:21:03;;;;;;;18.05;15.73;;;25.90;85.40;;;;;;5068135;28;20111;-67
2023/05/22 09:23:29;;;;;;;20.15;16.48;;;26.20;85.00;;;;;;5065771;28;20531;-66
2023/05/22 09:25:56;;;;;;;19.55;14.70;;;26.80;86.40;;;;;;5069480;28;20020;-71
2023/05/22 09:28:22;;;;;;;19.15;16.08;;;26.80;83.90;;;;;;5059992;28;20099;-69
2023/05/22 09:30:52;;;;;;;18.02;15.05;;;25.90;86.10;;;;;;5068440;28;20025;-68
2023/05/22 09:33:18;;;;;;;17.92;15.55;;;26.00;86.90;;;;;;5063165;28;20033;-72
2023/05/22 09:35:48;;;;;;;21.17;16.83;;;28.40;83.90;;;;;;5063752;28;20039;-70
2023/05/22 09:38:14;;;;;;;17.83;14.55;;;27.00;83.10;;;;;;5063825;28;20050;-68
2023/05/22 09:40:40;;;;;;;21.13;16.10;;;27.50;84.10;;;;;;5064913;28;20029;-72
2023/05/22 09:43:10;;;;;;;24.73;16.05;;;28.40;82.40;;;;;;5074237;28;20040;-69
2023/05/22 09:45:37;;;;;;;19.75;15.98;;;29.80;80.40;;;;;;5056596;28;20044;-69
2023/05/22 09:48:07;;;;;;;23.52;16.15;;;28.00;78.90;;;;;;5062667;28;20024;-68
2023/05/22 09:50:33;;;;;;;20.75;17.08;;;27.20;81.80;;;;;;5061177;28;20107;-76
2023/05/22 09:53:02;;;;;;;27.85;17.17;;;27.50;84.70;;;;;;5060445;28;20123;-72
2023/05/22 09:55:29;;;;;;;25.35;18.95;;;26.60;84.00;;;;;;5064138;28;20054;-69
2023/05/22 09:57:56;;;;;;;25.95;17.88;;;28.30;86.40;;;;;;5057464;28;20070;-69
2023/05/22 10:00:23;;;;;;;22.27;17.70;;;27.20;82.30;;;;;;5063188;28;21341;-72
2023/05/22 10:02:55;;;;;;;20.92;17.85;;;26.90;84.70;;;;;;5057667;28;20507;-70
2023/05/22 10:05:22;;;;;;;23.33;18.90;;;27.50;86.00;;;;;;5068633;28;20039;-75
2023/05/22 10:07:54;;;;;;;25.35;18.27;;;27.80;82.80;;;;;;5063151;28;20083;-71
2023/05/22 10:10:24;;;;;;;20.55;17.80;;;27.40;83.90;;;;;;5058694;28;20105;-70
2023/05/22 10:12:55;;;;;;;24.23;16.08;;;28.20;83.80;;;;;;5093081;28;20549;-72
2023/05/22 10:15:22;;;;;;;15.95;14.20;;;27.30;83.60;;;;;;5059530;28;20501;-71
2023/05/22 10:17:48;;;;;;;;;;;26.90;84.80;;;;;;5063766;28;20048;-71
2023/05/22 10:20:14;;;;;;;14.55;13.00;;;26.50;81.90;;;;;;5058236;28;19916;-69
2023/05/22 10:22:41;;;;;;;16.73;13.38;;;26.20;84.60;;;;;;5067961;28;20044;-69
2023/05/22 10:25:07;;;;;;;15.85;13.20;;;25.60;87.20;;;;;;5057291;28;20067;-70
2023/05/22 10:27:33;;;;;;;;;;;25.40;87.90;;;;;;5068453;28;20024;-71
2023/05/22 10:30:19;;;;;;;16.33;12.93;;;25.60;88.50;;;;;;5067415;28;19970;-71
2023/05/22 10:33:12;;;;;;;16.40;11.10;;;25.90;86.00;;;;;;5065480;28;20035;-70
2023/05/22 10:35:41;;;;;;;14.68;10.75;;;25.70;86.30;;;;;;5093404;28;20036;-71
2023/05/22 10:38:31;;;;;;;17.65;11.00;;;25.30;87.60;;;;;;5068794;28;20036;-71
2023/05/22 10:40:58;;;;;;;11.52;10.32;;;25.30;88.20;;;;;;5058289;28;20118;-71
2023/05/22 10:43:24;;;;;;;;;;;25.50;87.30;;;;;;5063692;28;20032;-71
2023/05/22 10:46:04;;;;;;;16.23;11.35;;;25.80;88.50;;;;;;5070175;28;19913;-71
2023/05/22 10:48:44;;;;;;;15.65;11.35;;;26.00;85.90;;;;;;5058875;28;20057;-71
2023/05/22 10:51:12;;;;;;;16.73;11.88;;;25.20;86.50;;;;;;5062661;28;20039;-74
2023/05/22 10:53:39;;;;;;;15.63;11.05;;;24.90;88.20;;;;;;5060454;28;20043;-71
2023/05/22 10:56:30;;;;;;;12.57;10.73;;;24.90;87.80;;;;;;5061763;28;20033;-75
2023/05/22 10:59:01;;;;;;;14.00;10.95;;;24.70;86.50;;;;;;5061182;28;20190;-76
2023/05/22 11:01:27;;;;;;;13.57;10.35;;;24.80;85.80;;;;;;5044486;28;20548;-75
2023/05/22 11:03:59;;;;;;;14.82;10.13;;;24.80;87.10;;;;;;5061871;28;20043;-69
2023/05/22 11:06:38;;;;;;;11.00;9.90;;;25.10;87.80;;;;;;5057194;28;20039;-72
2023/05/22 11:09:20;;;;;;;11.57;10.35;;;25.20;87.90;;;;;;5064962;28;20029;-72
2023/05/22 11:12:07;;;;;;;13.38;10.23;;;25.60;90.10;;;;;;5062403;28;20060;-71
2023/05/22 11:14:34;;;;;;;13.13;9.65;;;25.60;87.60;;;;;;5057606;28;20039;-72
2023/05/22 11:17:00;;;;;;;10.88;8.68;;;25.30;84.60;;;;;;5061559;28;20036;-76
2023/05/22 11:19:26;;;;;;;9.95;7.75;;;25.20;87.50;;;;;;5064665;28;20029;-72
2023/05/22 11:21:55;;;;;;;10.10;8.27;;;25.10;86.90;;;;;;5065954;28;20151;-72
2023/05/22 11:24:21;;;;;;;11.65;8.40;;;25.30;87.60;;;;;;5059770;28;20124;-75
2023/05/22 11:27:01;;;;;;;10.02;8.85;;;25.70;88.80;;;;;;5058703;28;20119;-72
2023/05/22 11:29:28;;;;;;;12.05;9.05;;;25.80;85.70;;;;;;5060565;28;20518;-73
2023/05/22 11:31:55;;;;;;;12.88;8.18;;;25.70;86.00;;;;;;5056576;28;20043;-71
2023/05/22 11:34:21;;;;;;;9.68;7.85;;;25.60;86.30;;;;;;5054881;28;20087;-72
2023/05/22 11:36:47;;;;;;;12.43;8.75;;;25.50;86.40;;;;;;5060405;28;20695;-73
2023/05/22 11:39:15;;;;;;;10.60;8.00;;;25.40;86.80;;;;;;5062986;28;20039;-73
2023/05/22 11:41:41;;;;;;;17.92;7.60;;;25.40;85.90;;;;;;5064181;28;20114;-75
2023/05/22 11:44:07;;;;;;;9.10;7.13;;;25.70;84.10;;;;;;5067201;28;20540;-76
2023/05/22 11:46:33;;;;;;;9.10;6.95;;;26.10;83.40;;;;;;5059230;28;20028;-73
2023/05/22 11:48:59;;;;;;;12.80;8.40;;;26.10;83.50;;;;;;5061767;28;20028;-73
2023/05/22 11:51:26;;;;;;;;;;;26.20;81.30;;;;;;5065650;28;20043;-73
2023/05/22 11:53:51;;;;;;;12.05;6.82;;;26.00;81.90;;;;;;5062227;28;19919;-73
2023/05/22 11:56:21;;;;;;;8.52;6.38;;;25.90;82.20;;;;;;5066827;28;20449;-73
2023/05/22 11:58:50;;;;;;;9.60;7.13;;;25.90;81.70;;;;;;5058798;28;20297;-71
2023/05/22 12:01:16;;;;;;;10.77;6.82;;;26.30;81.20;;;;;;5061731;28;20122;-70
2023/05/22 12:03:42;;;;;;;11.02;7.13;;;26.30;81.80;;;;;;5089495;28;20040;-72
2023/05/22 12:06:08;;;;;;;9.93;6.78;;;26.30;81.20;;;;;;5062193;28;20028;-71
2023/05/22 12:08:34;;;;;;;13.45;6.75;;;26.50;80.00;;;;;;5058453;28;20045;-67
2023/05/22 12:10:59;;;;;;;8.85;6.90;;;26.30;80.00;;;;;;5068876;28;20492;-73
2023/05/22 12:13:29;;;;;;;11.90;7.63;;;25.90;78.90;;;;;;5066591;28;20562;-71
2023/05/22 12:15:59;;;;;;;7.32;6.43;;;25.80;79.10;;;;;;5067470;28;20175;-71
2023/05/22 12:18:25;;;;;;;8.00;6.07;;;25.60;80.40;;;;;;5069274;28;20807;-70
2023/05/22 12:20:53;;;;;;;6.20;5.60;;;25.70;80.40;;;;;;5067470;28;20504;-72
2023/05/22 12:23:24;;;;;;;12.73;6.50;;;25.80;80.90;;;;;;5063157;28;20089;-71
2023/05/22 12:26:00;;;;;;;8.43;6.13;;;25.60;80.00;;;;;;5060344;28;20033;-70
2023/05/22 12:28:26;;;;;;;;;;;25.60;81.60;;;;;;5062367;28;20028;-67
2023/05/22 12:30:53;;;;;;;8.50;5.93;;;25.90;80.20;;;;;;5059953;28;19995;-73
2023/05/22 12:33:19;;;;;;;8.82;6.05;;;25.70;78.90;;;;;;5056340;28;20031;-69
2023/05/22 12:35:50;;;;;;;8.63;5.75;;;25.80;81.00;;;;;;5066401;28;20115;-69